createdAt,value
2018-03-18T00:01:09.269Z,4.10
2018-03-18T00:03:36.777Z,4.10
2018-03-18T00:06:04.246Z,4.10
2018-03-18T00:08:31.798Z,4.10
2018-03-18T00:10:59.234Z,4.00
2018-03-18T00:13:26.718Z,4.00
2018-03-18T00:15:54.194Z,4.00
2018-03-18T00:18:21.694Z,4.00
2018-03-18T00:20:49.200Z,4.00
2018-03-18T00:23:17.452Z,4.00
2018-03-18T00:25:44.919Z,4.00
2018-03-18T00:28:12.406Z,4.00
2018-03-18T00:30:39.876Z,4.00
2018-03-18T00:33:07.373Z,4.00
2018-03-18T00:35:35.613Z,4.00
2018-03-18T00:38:03.118Z,4.00
2018-03-18T00:40:30.590Z,4.00
2018-03-18T00:42:58.875Z,4.00
2018-03-18T00:45:26.338Z,4.00
2018-03-18T00:47:54.674Z,4.00
2018-03-18T00:50:22.142Z,4.00
2018-03-18T00:52:49.696Z,3.90
2018-03-18T00:55:18.026Z,3.90
2018-03-18T00:57:45.631Z,3.90
2018-03-18T01:00:13.111Z,3.90
2018-03-18T01:02:40.620Z,3.90
2018-03-18T01:05:08.193Z,3.90
2018-03-18T01:07:35.698Z,3.90
2018-03-18T01:10:03.258Z,3.90
2018-03-18T01:12:30.746Z,3.90
2018-03-18T01:14:58.246Z,3.90
2018-03-18T01:17:25.749Z,3.80
2018-03-18T01:19:53.317Z,3.90
2018-03-18T01:22:20.788Z,3.90
2018-03-18T01:24:49.085Z,3.90
2018-03-18T01:27:16.573Z,3.80
2018-03-18T01:29:44.070Z,3.90
2018-03-18T01:32:11.622Z,3.90
2018-03-18T01:34:39.154Z,3.90
2018-03-18T01:37:07.391Z,3.80
2018-03-18T01:39:34.899Z,3.80
2018-03-18T01:42:02.496Z,3.80
2018-03-18T01:44:30.746Z,3.80
2018-03-18T01:46:58.211Z,3.80
2018-03-18T01:49:25.705Z,3.80
2018-03-18T01:51:53.337Z,3.80
2018-03-18T01:54:20.833Z,3.80
2018-03-18T01:56:48.294Z,3.80
2018-03-18T01:59:15.824Z,3.80
2018-03-18T02:01:44.068Z,3.80
2018-03-18T02:04:11.558Z,3.80
2018-03-18T02:06:39.044Z,3.80
2018-03-18T02:09:06.614Z,3.80
2018-03-18T02:11:34.849Z,3.80
2018-03-18T02:14:02.385Z,3.80
2018-03-18T02:16:29.859Z,3.80
2018-03-18T02:18:57.348Z,3.80
2018-03-18T02:21:24.825Z,3.80
2018-03-18T02:23:52.394Z,3.80
2018-03-18T02:26:19.865Z,3.90
2018-03-18T02:28:47.349Z,3.80
2018-03-18T02:31:14.833Z,3.90
2018-03-18T02:33:42.318Z,3.90
2018-03-18T02:36:09.799Z,3.80
2018-03-18T02:38:37.275Z,3.80
2018-03-18T02:41:04.789Z,3.80
2018-03-18T02:43:32.277Z,3.80
2018-03-18T02:45:59.737Z,3.80
2018-03-18T02:48:27.218Z,3.80
2018-03-18T02:50:54.697Z,3.80
2018-03-18T02:53:22.182Z,3.80
2018-03-18T02:55:49.667Z,3.80
2018-03-18T02:58:17.162Z,3.80
2018-03-18T03:00:45.402Z,3.80
2018-03-18T03:03:12.894Z,3.70
2018-03-18T03:05:40.365Z,3.80
2018-03-18T03:08:07.871Z,3.80
2018-03-18T03:10:35.409Z,3.80
2018-03-18T03:13:03.710Z,3.80
2018-03-18T03:15:31.965Z,3.80
2018-03-18T03:17:59.454Z,3.80
2018-03-18T03:20:26.915Z,3.80
2018-03-18T03:22:54.405Z,3.80
2018-03-18T03:25:21.887Z,3.80
2018-03-18T03:27:50.114Z,3.80
2018-03-18T03:30:17.606Z,3.80
2018-03-18T03:32:45.081Z,3.80
2018-03-18T03:35:12.558Z,3.80
2018-03-18T03:37:40.013Z,3.80
2018-03-18T03:40:07.523Z,3.80
2018-03-18T03:42:35.025Z,3.80
2018-03-18T03:45:02.514Z,3.80
2018-03-18T03:47:29.986Z,4.20
2018-03-18T03:49:57.470Z,3.80
2018-03-18T03:52:24.989Z,3.80
2018-03-18T03:54:53.252Z,3.80
2018-03-18T03:57:20.709Z,3.80
2018-03-18T03:59:48.197Z,3.80
2018-03-18T04:02:15.658Z,3.80
2018-03-18T04:04:43.157Z,3.80
2018-03-18T04:07:11.389Z,3.80
2018-03-18T04:09:38.880Z,3.80
2018-03-18T04:12:07.112Z,3.80
2018-03-18T04:14:35.349Z,3.80
2018-03-18T04:17:02.804Z,3.80
2018-03-18T04:19:30.285Z,3.80
2018-03-18T04:21:57.797Z,3.80
2018-03-18T04:24:25.281Z,3.80
2018-03-18T04:26:53.507Z,3.80
2018-03-18T04:29:21.001Z,3.70
2018-03-18T04:31:48.505Z,3.80
2018-03-18T04:34:15.973Z,3.70
2018-03-18T04:36:43.430Z,3.70
2018-03-18T04:39:10.911Z,3.70
2018-03-18T04:41:38.365Z,3.70
2018-03-18T04:44:05.865Z,3.70
2018-03-18T04:46:34.125Z,3.60
2018-03-18T04:49:01.617Z,3.70
2018-03-18T04:51:29.129Z,3.70
2018-03-18T04:53:56.645Z,3.60
2018-03-18T04:56:24.110Z,3.60
2018-03-18T04:58:51.605Z,3.60
2018-03-18T05:01:19.070Z,3.60
2018-03-18T05:03:46.546Z,3.60
2018-03-18T05:06:14.774Z,3.60
2018-03-18T05:08:42.261Z,3.60
2018-03-18T05:11:09.715Z,3.60
2018-03-18T05:13:37.193Z,3.60
2018-03-18T05:16:04.653Z,3.60
2018-03-18T05:18:32.132Z,3.60
2018-03-18T05:20:59.602Z,3.60
2018-03-18T05:23:27.073Z,3.60
2018-03-18T05:25:54.590Z,3.60
2018-03-18T05:28:22.094Z,3.60
2018-03-18T05:30:50.341Z,3.60
2018-03-18T05:33:17.800Z,3.60
2018-03-18T05:35:45.278Z,3.60
2018-03-18T05:38:12.737Z,3.60
2018-03-18T05:40:40.226Z,3.60
2018-03-18T05:43:07.679Z,3.60
2018-03-18T05:45:35.163Z,3.60
2018-03-18T05:48:02.680Z,3.60
2018-03-18T05:50:30.173Z,3.60
2018-03-18T05:52:57.632Z,3.60
2018-03-18T05:55:25.130Z,3.60
2018-03-18T05:57:52.589Z,3.60
2018-03-18T06:00:20.901Z,3.70
2018-03-18T06:02:48.355Z,3.60
2018-03-18T06:05:15.832Z,3.60
2018-03-18T06:07:43.299Z,3.60
2018-03-18T06:10:10.797Z,3.60
2018-03-18T06:12:38.262Z,3.60
2018-03-18T06:15:05.746Z,3.60
2018-03-18T06:17:33.222Z,3.70
2018-03-18T06:20:00.698Z,3.70
2018-03-18T06:22:29.008Z,3.70
2018-03-18T06:24:56.501Z,3.70
2018-03-18T06:27:24.021Z,3.70
2018-03-18T06:29:51.498Z,3.70
2018-03-18T06:32:18.953Z,3.70
2018-03-18T06:34:46.429Z,3.70
2018-03-18T06:37:13.953Z,3.70
2018-03-18T06:39:41.436Z,3.70
2018-03-18T06:42:08.905Z,3.70
2018-03-18T06:44:36.386Z,3.70
2018-03-18T06:47:03.995Z,3.70
2018-03-18T06:49:31.469Z,3.70
2018-03-18T06:51:58.941Z,3.70
2018-03-18T06:54:27.216Z,3.70
2018-03-18T06:56:54.678Z,3.70
2018-03-18T06:59:22.237Z,3.70
2018-03-18T07:01:49.754Z,3.70
2018-03-18T07:04:17.996Z,3.70
2018-03-18T07:06:45.448Z,3.70
2018-03-18T07:09:12.934Z,3.70
2018-03-18T07:11:40.401Z,3.80
2018-03-18T07:14:07.911Z,3.80
2018-03-18T07:16:35.382Z,3.80
2018-03-18T07:19:02.854Z,3.80
2018-03-18T07:21:31.117Z,3.80
2018-03-18T07:23:58.640Z,3.80
2018-03-18T07:26:26.089Z,3.80
2018-03-18T07:28:54.335Z,3.90
2018-03-18T07:31:21.893Z,3.80
2018-03-18T07:33:49.378Z,3.90
2018-03-18T07:36:16.859Z,3.90
2018-03-18T07:38:44.385Z,3.90
2018-03-18T07:41:12.613Z,3.90
2018-03-18T07:43:40.223Z,3.90
2018-03-18T07:46:08.906Z,4.00
2018-03-18T07:48:36.486Z,4.00
2018-03-18T07:51:04.039Z,4.00
2018-03-18T07:53:31.532Z,4.00
2018-03-18T07:55:59.010Z,4.00
2018-03-18T07:58:26.790Z,4.00
2018-03-18T08:00:54.323Z,4.00
2018-03-18T08:03:21.836Z,4.00
2018-03-18T08:05:49.321Z,4.00
2018-03-18T08:08:16.856Z,4.00
2018-03-18T08:10:45.170Z,4.00
2018-03-18T08:13:12.640Z,4.00
2018-03-18T08:15:40.848Z,4.10
2018-03-18T08:18:09.107Z,4.20
2018-03-18T08:20:36.589Z,4.20
2018-03-18T08:23:04.830Z,4.20
2018-03-18T08:25:32.316Z,4.20
2018-03-18T08:27:59.830Z,4.60
2018-03-18T08:30:27.321Z,4.20
2018-03-18T08:32:54.781Z,4.30
2018-03-18T08:35:22.271Z,4.20
2018-03-18T08:37:50.493Z,4.30
2018-03-18T08:40:18.015Z,4.30
2018-03-18T08:42:45.482Z,4.30
2018-03-18T08:45:12.971Z,4.30
2018-03-18T08:47:41.209Z,4.40
2018-03-18T08:50:08.717Z,4.40
2018-03-18T08:52:36.271Z,4.50
2018-03-18T08:55:03.750Z,4.50
2018-03-18T08:57:31.212Z,4.50
2018-03-18T08:59:58.707Z,4.60
2018-03-18T09:02:26.168Z,4.60
2018-03-18T09:04:53.714Z,4.70
2018-03-18T09:07:21.275Z,4.70
2018-03-18T09:09:48.759Z,4.80
2018-03-18T09:12:16.299Z,4.80
2018-03-18T09:14:43.826Z,4.80
2018-03-18T09:17:11.321Z,4.90
2018-03-18T09:19:39.581Z,4.90
2018-03-18T09:22:07.079Z,4.90
2018-03-18T09:24:35.351Z,5.00
2018-03-18T09:27:02.817Z,4.90
2018-03-18T09:29:31.837Z,5.00
2018-03-18T09:32:04.013Z,5.00
2018-03-18T09:34:31.561Z,5.00
2018-03-18T09:36:59.032Z,5.00
2018-03-18T09:39:26.867Z,5.00
2018-03-18T09:41:54.749Z,5.10
2018-03-18T09:44:24.576Z,5.10
2018-03-18T09:46:52.364Z,5.10
2018-03-18T09:49:21.265Z,5.10
2018-03-18T09:51:49.410Z,5.10
2018-03-18T09:54:17.308Z,5.20
2018-03-18T09:56:46.217Z,5.20
2018-03-18T09:59:14.216Z,5.10
2018-03-18T10:01:42.189Z,5.20
2018-03-18T10:04:10.111Z,5.20
2018-03-18T10:06:38.805Z,5.20
2018-03-18T10:09:07.946Z,5.30
2018-03-18T10:11:35.909Z,5.30
2018-03-18T10:14:04.475Z,5.40
2018-03-18T10:16:32.324Z,5.40
2018-03-18T10:19:00.111Z,5.40
2018-03-18T10:21:28.901Z,5.50
2018-03-18T10:23:57.179Z,5.50
2018-03-18T10:26:25.737Z,5.50
2018-03-18T10:28:54.516Z,5.50
2018-03-18T10:31:22.495Z,5.60
2018-03-18T10:33:51.156Z,5.70
2018-03-18T10:36:19.955Z,5.70
2018-03-18T10:38:47.884Z,5.70
2018-03-18T10:41:15.668Z,5.80
2018-03-18T10:43:43.316Z,5.80
2018-03-18T10:46:11.756Z,5.80
2018-03-18T10:48:39.494Z,5.90
2018-03-18T10:51:08.154Z,5.90
2018-03-18T10:53:36.290Z,5.90
2018-03-18T10:56:05.363Z,5.90
2018-03-18T10:58:33.034Z,5.90
2018-03-18T11:01:07.861Z,5.90
2018-03-18T11:03:35.350Z,5.90
2018-03-18T11:06:02.957Z,5.90
2018-03-18T11:08:30.482Z,5.90
2018-03-18T11:10:58.672Z,5.90
2018-03-18T11:13:28.153Z,6.00
2018-03-18T11:15:56.017Z,6.00
2018-03-18T11:18:23.795Z,6.10
2018-03-18T11:20:51.854Z,6.20
2018-03-18T11:23:19.715Z,6.20
2018-03-18T11:25:47.628Z,6.30
2018-03-18T11:28:15.517Z,6.30
2018-03-18T11:30:43.461Z,6.40
2018-03-18T11:33:10.962Z,6.40
2018-03-18T11:35:39.584Z,6.40
2018-03-18T11:38:08.381Z,6.40
2018-03-18T11:40:37.181Z,6.40
2018-03-18T11:43:05.482Z,6.40
2018-03-18T11:45:34.411Z,6.50
2018-03-18T11:48:02.190Z,6.50
2018-03-18T11:50:30.638Z,6.50
2018-03-18T11:52:58.611Z,6.50
2018-03-18T11:55:27.233Z,6.50
2018-03-18T11:57:55.748Z,6.50
2018-03-18T12:00:24.325Z,6.50
2018-03-18T12:02:52.239Z,6.50
2018-03-18T12:05:19.964Z,6.50
2018-03-18T12:07:48.747Z,6.50
2018-03-18T12:10:16.658Z,6.50
2018-03-18T12:12:44.475Z,6.50
2018-03-18T12:15:13.002Z,6.50
2018-03-18T12:17:40.683Z,6.50
2018-03-18T12:20:09.111Z,6.60
2018-03-18T12:22:38.350Z,6.60
2018-03-18T12:25:06.209Z,6.60
2018-03-18T12:27:34.996Z,6.70
2018-03-18T12:30:02.781Z,6.70
2018-03-18T12:32:31.596Z,6.80
2018-03-18T12:35:00.680Z,6.90
2018-03-18T12:37:28.640Z,6.90
2018-03-18T12:40:08.175Z,6.90
2018-03-18T12:42:48.602Z,7.00
2018-03-18T12:45:16.508Z,6.90
2018-03-18T12:47:44.412Z,7.00
2018-03-18T12:50:13.269Z,7.00
2018-03-18T12:52:40.832Z,7.00
2018-03-18T12:55:08.495Z,7.10
2018-03-18T12:57:36.734Z,7.20
2018-03-18T13:00:04.301Z,7.20
2018-03-18T13:02:31.802Z,7.30
2018-03-18T13:04:59.287Z,7.90
2018-03-18T13:07:27.520Z,7.50
2018-03-18T13:09:55.014Z,7.40
2018-03-18T13:12:22.511Z,7.50
2018-03-18T13:14:50.000Z,7.60
2018-03-18T13:17:17.799Z,7.70
2018-03-18T13:19:45.317Z,7.80
2018-03-18T13:22:12.964Z,7.90
2018-03-18T13:24:41.250Z,8.20
2018-03-18T13:27:09.795Z,8.30
2018-03-18T13:29:37.987Z,8.30
2018-03-18T13:32:05.625Z,8.40
2018-03-18T13:34:34.271Z,8.50
2018-03-18T13:37:02.649Z,8.60
2018-03-18T13:39:30.492Z,8.60
2018-03-18T13:41:59.009Z,8.80
2018-03-18T13:44:27.312Z,7.90
2018-03-18T13:46:54.809Z,8.80
2018-03-18T13:49:22.321Z,8.90
2018-03-18T13:51:49.826Z,9.00
2018-03-18T13:54:18.070Z,9.00
2018-03-18T13:56:45.549Z,9.00
2018-03-18T13:59:13.119Z,9.00
2018-03-18T14:01:40.598Z,8.90
2018-03-18T14:04:08.066Z,8.90
2018-03-18T14:06:35.638Z,8.90
2018-03-18T14:09:03.134Z,8.80
2018-03-18T14:11:30.631Z,8.80
2018-03-18T14:13:58.907Z,8.70
2018-03-18T14:16:26.390Z,8.70
2018-03-18T14:18:54.671Z,8.60
2018-03-18T14:21:22.939Z,8.60
2018-03-18T14:23:50.410Z,8.60
2018-03-18T14:26:17.868Z,8.60
2018-03-18T14:28:45.361Z,8.50
2018-03-18T14:31:12.837Z,8.50
2018-03-18T14:33:41.107Z,8.50
2018-03-18T14:36:09.337Z,8.50
2018-03-18T14:38:37.601Z,8.60
2018-03-18T14:41:05.090Z,8.50
2018-03-18T14:43:33.344Z,8.50
2018-03-18T14:46:00.854Z,8.50
2018-03-18T14:48:29.103Z,8.50
2018-03-18T14:50:56.569Z,8.50
2018-03-18T14:53:24.057Z,8.50
2018-03-18T14:55:51.553Z,8.50
2018-03-18T14:58:19.819Z,8.60
2018-03-18T15:00:47.299Z,8.60
2018-03-18T15:03:14.831Z,8.70
2018-03-18T15:05:42.291Z,8.70
2018-03-18T15:08:09.826Z,8.80
2018-03-18T15:10:38.107Z,8.70
2018-03-18T15:13:05.594Z,8.70
2018-03-18T15:15:33.064Z,8.70
2018-03-18T15:18:01.312Z,8.70
2018-03-18T15:20:28.806Z,8.70
2018-03-18T15:22:56.908Z,8.70
2018-03-18T15:25:24.389Z,8.70
2018-03-18T15:27:51.862Z,8.70
2018-03-18T15:30:19.441Z,8.60
2018-03-18T15:32:46.913Z,8.80
2018-03-18T15:35:14.406Z,8.60
2018-03-18T15:37:42.131Z,8.60
2018-03-18T15:40:10.780Z,8.50
2018-03-18T15:42:38.366Z,8.50
2018-03-18T15:45:05.959Z,8.50
2018-03-18T15:47:33.437Z,8.50
2018-03-18T15:50:00.909Z,8.50
2018-03-18T15:52:28.713Z,8.40
2018-03-18T15:54:57.186Z,8.40
2018-03-18T15:57:24.737Z,8.40
2018-03-18T15:59:52.202Z,8.30
2018-03-18T16:02:19.702Z,8.30
2018-03-18T16:04:47.217Z,8.30
2018-03-18T16:07:14.678Z,8.30
2018-03-18T16:09:42.150Z,8.30
2018-03-18T16:12:09.643Z,8.30
2018-03-18T16:14:37.217Z,8.30
2018-03-18T16:17:04.673Z,8.30
2018-03-18T16:19:32.170Z,8.30
2018-03-18T16:21:59.661Z,8.30
2018-03-18T16:24:27.164Z,8.30
2018-03-18T16:26:54.653Z,8.20
2018-03-18T16:29:33.965Z,8.20
2018-03-18T16:32:02.281Z,8.20
2018-03-18T16:34:29.838Z,8.20
2018-03-18T16:36:58.185Z,8.10
2018-03-18T16:39:25.646Z,8.10
2018-03-18T16:41:53.147Z,8.10
2018-03-18T16:44:20.614Z,8.10
2018-03-18T16:46:48.152Z,8.10
2018-03-18T16:49:15.626Z,8.10
2018-03-18T16:51:43.110Z,8.10
2018-03-18T16:54:10.573Z,8.10
2018-03-18T16:56:38.826Z,8.10
2018-03-18T16:59:06.302Z,8.10
2018-03-18T17:01:33.790Z,8.10
2018-03-18T17:04:01.314Z,8.10
2018-03-18T17:06:28.782Z,8.10
2018-03-18T17:08:57.036Z,8.00
2018-03-18T17:11:24.510Z,8.00
2018-03-18T17:13:52.008Z,8.00
2018-03-18T17:16:19.544Z,8.00
2018-03-18T17:18:47.022Z,8.00
2018-03-18T17:21:14.543Z,7.90
2018-03-18T17:23:42.781Z,7.90
2018-03-18T17:26:11.010Z,6.80
2018-03-18T17:28:39.359Z,7.80
2018-03-18T17:31:06.817Z,7.80
2018-03-18T17:33:34.293Z,7.80
2018-03-18T17:36:01.825Z,7.70
2018-03-18T17:38:29.346Z,7.70
2018-03-18T17:40:56.847Z,7.70
2018-03-18T17:43:24.627Z,7.70
2018-03-18T17:46:04.282Z,7.60
2018-03-18T17:52:03.057Z,7.50
2018-03-18T17:54:42.263Z,7.50
2018-03-18T17:57:09.857Z,7.40
2018-03-18T17:59:37.476Z,7.40
2018-03-18T18:02:05.005Z,7.40
2018-03-18T18:04:33.248Z,7.40
2018-03-18T18:07:00.777Z,7.40
2018-03-18T18:09:29.121Z,7.40
2018-03-18T18:11:56.614Z,7.30
2018-03-18T18:14:24.142Z,7.30
2018-03-18T18:16:51.711Z,7.30
2018-03-18T18:19:19.194Z,7.30
2018-03-18T18:21:46.649Z,7.30
2018-03-18T18:24:14.145Z,7.30
2018-03-18T18:26:41.619Z,7.30
2018-03-18T18:29:09.149Z,7.30
2018-03-18T18:31:36.632Z,7.30
2018-03-18T18:34:04.200Z,7.30
2018-03-18T18:36:31.694Z,7.30
2018-03-18T18:38:59.209Z,7.30
2018-03-18T18:41:26.661Z,7.30
2018-03-18T18:43:54.350Z,7.30
2018-03-18T18:46:21.835Z,7.30
2018-03-18T18:48:50.165Z,7.20
2018-03-18T18:51:17.640Z,7.30
2018-03-18T18:53:45.105Z,7.20
2018-03-18T18:56:12.577Z,7.20
2018-03-18T18:58:40.072Z,7.20
2018-03-18T19:01:07.557Z,7.20
2018-03-18T19:03:35.034Z,7.10
2018-03-18T19:06:02.530Z,7.10
2018-03-18T19:08:30.798Z,7.10
2018-03-18T19:10:58.274Z,7.10
2018-03-18T19:13:25.756Z,7.00
2018-03-18T19:15:54.075Z,7.00
2018-03-18T19:18:21.568Z,7.00
2018-03-18T19:20:49.067Z,7.00
2018-03-18T19:23:16.731Z,7.00
2018-03-18T19:25:44.238Z,6.90
2018-03-18T19:28:12.662Z,6.90
2018-03-18T19:30:40.900Z,6.90
2018-03-18T19:33:09.154Z,6.80
2018-03-18T19:35:36.696Z,6.80
2018-03-18T19:38:04.292Z,6.80
2018-03-18T19:40:31.843Z,6.80
2018-03-18T19:42:59.423Z,6.80
2018-03-18T19:45:27.144Z,6.80
2018-03-18T19:47:54.698Z,6.70
2018-03-18T19:50:22.388Z,6.70
2018-03-18T19:52:50.569Z,6.70
2018-03-18T19:55:18.047Z,6.70
2018-03-18T19:57:45.537Z,6.70
2018-03-18T20:00:13.002Z,6.70
2018-03-18T20:02:41.266Z,6.70
2018-03-18T20:05:08.735Z,6.70
2018-03-18T20:07:36.253Z,6.70
2018-03-18T20:10:03.776Z,6.70
2018-03-18T20:12:31.275Z,6.70
2018-03-18T20:14:58.758Z,6.60
2018-03-18T20:17:27.110Z,6.70
2018-03-18T20:19:54.617Z,6.60
2018-03-18T20:22:22.105Z,6.60
2018-03-18T20:24:50.390Z,6.60
2018-03-18T20:27:17.956Z,6.60
2018-03-18T20:29:46.221Z,6.60
2018-03-18T20:32:13.839Z,6.50
2018-03-18T20:34:41.464Z,6.50
2018-03-18T20:37:08.961Z,6.60
2018-03-18T20:39:36.459Z,6.60
2018-03-18T20:42:04.046Z,6.50
2018-03-18T20:44:33.490Z,6.50
2018-03-18T20:47:00.954Z,6.50
2018-03-18T20:49:28.464Z,6.50
2018-03-18T20:51:55.932Z,6.50
2018-03-18T20:54:23.453Z,6.50
2018-03-18T20:56:50.939Z,6.50
2018-03-18T20:59:18.429Z,6.50
2018-03-18T21:01:45.913Z,6.50
2018-03-18T21:04:13.416Z,6.50
2018-03-18T21:06:40.879Z,6.50
2018-03-18T21:09:09.149Z,6.50
2018-03-18T21:11:36.614Z,6.50
2018-03-18T21:14:04.114Z,6.50
2018-03-18T21:16:32.350Z,6.40
2018-03-18T21:18:59.836Z,6.40
2018-03-18T21:21:28.150Z,6.40
2018-03-18T21:23:55.823Z,6.40
2018-03-18T21:26:23.279Z,6.40
2018-03-18T21:28:50.776Z,6.40
2018-03-18T21:31:19.058Z,6.40
2018-03-18T21:33:46.536Z,6.30
2018-03-18T21:36:14.762Z,6.30
2018-03-18T21:38:42.258Z,6.30
2018-03-18T21:41:09.708Z,6.30
2018-03-18T21:43:37.213Z,6.30
2018-03-18T21:46:04.702Z,6.30
2018-03-18T21:48:32.166Z,6.30
2018-03-18T21:50:59.719Z,6.20
2018-03-18T21:53:27.203Z,6.20
2018-03-18T21:55:54.757Z,6.20
2018-03-18T21:58:22.221Z,6.20
2018-03-18T22:00:49.731Z,6.20
2018-03-18T22:03:17.186Z,6.10
2018-03-18T22:05:44.699Z,6.10
2018-03-18T22:08:12.178Z,6.00
2018-03-18T22:10:39.656Z,6.00
2018-03-18T22:13:07.200Z,6.00
2018-03-18T22:15:34.717Z,5.90
2018-03-18T22:18:02.223Z,5.90
2018-03-18T22:20:29.706Z,5.90
2018-03-18T22:22:58.066Z,5.90
2018-03-18T22:25:25.614Z,5.90
2018-03-18T22:27:53.090Z,5.90
2018-03-18T22:30:20.576Z,5.80
2018-03-18T22:32:48.065Z,5.80
2018-03-18T22:35:15.590Z,5.80
2018-03-18T22:37:43.057Z,5.80
2018-03-18T22:40:10.545Z,5.80
2018-03-18T22:42:38.002Z,5.80
2018-03-18T22:45:05.487Z,5.70
2018-03-18T22:47:33.766Z,5.70
2018-03-18T22:50:01.296Z,5.70
2018-03-18T22:52:29.519Z,5.80
2018-03-18T22:54:57.173Z,5.70
2018-03-18T22:57:25.492Z,5.70
2018-03-18T22:59:52.958Z,5.70
2018-03-18T23:02:20.453Z,5.70
2018-03-18T23:04:47.918Z,5.70
2018-03-18T23:07:15.438Z,5.60
2018-03-18T23:09:43.656Z,5.60
2018-03-18T23:12:11.167Z,5.60
2018-03-18T23:14:38.654Z,5.60
2018-03-18T23:17:06.143Z,5.60
2018-03-18T23:19:34.389Z,5.50
2018-03-18T23:22:01.884Z,5.50
2018-03-18T23:24:29.349Z,5.50
2018-03-18T23:26:56.850Z,5.50
2018-03-18T23:29:25.093Z,5.50
2018-03-18T23:31:52.565Z,5.40
2018-03-18T23:34:20.030Z,5.40
2018-03-18T23:36:48.413Z,5.40
2018-03-18T23:39:15.892Z,5.40
2018-03-18T23:41:43.360Z,5.40
2018-03-18T23:44:10.823Z,5.40
2018-03-18T23:46:38.298Z,5.40
2018-03-18T23:49:05.758Z,5.30
2018-03-18T23:51:33.237Z,5.30
2018-03-18T23:54:01.508Z,5.30
2018-03-18T23:56:29.066Z,5.30
2018-03-18T23:58:56.543Z,5.30
